createdAt,value
2018-05-04T00:02:39.193Z,101755.91
2018-05-04T00:05:45.307Z,101761.53
2018-05-04T00:08:52.409Z,101767.56
2018-05-04T00:11:58.280Z,101771.49
2018-05-04T00:15:05.201Z,101772.34
2018-05-04T00:18:11.040Z,101771.13
2018-05-04T00:21:16.280Z,101772.46
2018-05-04T00:24:21.469Z,101774.70
2018-05-04T00:27:26.712Z,101770.06
2018-05-04T00:30:31.882Z,101769.22
2018-05-04T00:33:37.095Z,101768.47
2018-05-04T00:36:42.290Z,101779.94
2018-05-04T00:39:47.484Z,101780.81
2018-05-04T00:42:52.681Z,101778.34
2018-05-04T00:45:58.798Z,101776.68
2018-05-04T00:49:04.190Z,101781.78
2018-05-04T00:52:09.393Z,101776.79
2018-05-04T00:55:14.589Z,101781.45
2018-05-04T00:58:20.253Z,101780.20
2018-05-04T01:01:25.177Z,101789.58
2018-05-04T01:04:30.409Z,101781.92
2018-05-04T01:07:35.697Z,101780.30
2018-05-04T01:10:40.612Z,101783.77
2018-05-04T01:13:46.742Z,101787.20
2018-05-04T01:16:51.691Z,101787.63
2018-05-04T01:19:56.642Z,101780.00
2018-05-04T01:23:03.672Z,101786.44
2018-05-04T01:26:09.552Z,101790.28
2018-05-04T01:29:15.761Z,101790.77
2018-05-04T01:32:21.570Z,101807.34
2018-05-04T01:35:28.573Z,101808.62
2018-05-04T01:38:35.605Z,101805.67
2018-05-04T01:41:41.753Z,101804.91
2018-05-04T01:44:47.651Z,101807.00
2018-05-04T01:47:52.854Z,101810.45
2018-05-04T01:50:59.007Z,101817.64
2018-05-04T01:54:05.142Z,101822.77
2018-05-04T01:57:12.247Z,101824.97
2018-05-04T02:00:18.400Z,101827.09
2018-05-04T02:03:24.265Z,101832.22
2018-05-04T02:06:30.091Z,101833.48
2018-05-04T02:09:35.302Z,101833.09
2018-05-04T02:12:41.562Z,101833.14
2018-05-04T02:15:47.178Z,101839.53
2018-05-04T02:18:52.617Z,101839.11
2018-05-04T02:21:58.729Z,101837.83
2018-05-04T02:25:04.347Z,101839.97
2018-05-04T02:28:09.551Z,101851.44
2018-05-04T02:31:15.667Z,101847.17
2018-05-04T02:34:21.315Z,101851.02
2018-05-04T02:37:26.522Z,101856.14
2018-05-04T02:40:31.734Z,101853.59
2018-05-04T02:43:37.868Z,101864.68
2018-05-04T02:46:42.793Z,101862.97
2018-05-04T02:49:48.530Z,101859.16
2018-05-04T02:52:53.726Z,101855.78
2018-05-04T02:55:59.146Z,101856.68
2018-05-04T02:59:04.361Z,101857.13
2018-05-04T03:02:09.583Z,101853.73
2018-05-04T03:05:14.835Z,101852.05
2018-05-04T03:08:21.914Z,101848.23
2018-05-04T03:11:28.658Z,101847.84
2018-05-04T03:14:34.271Z,101838.09
2018-05-04T03:17:40.414Z,101844.45
2018-05-04T03:20:46.984Z,101847.02
2018-05-04T03:23:52.601Z,101849.98
2018-05-04T03:26:57.812Z,101851.67
2018-05-04T03:30:04.683Z,101850.00
2018-05-04T03:33:09.866Z,101846.20
2018-05-04T03:36:15.580Z,101843.25
2018-05-04T03:39:20.778Z,101850.91
2018-05-04T03:42:26.260Z,101846.22
2018-05-04T03:45:32.050Z,101859.80
2018-05-04T03:48:38.594Z,101860.69
2018-05-04T03:51:43.798Z,101865.30
2018-05-04T03:54:49.038Z,101859.00
2018-05-04T03:58:05.202Z,101868.70
2018-05-04T04:01:22.124Z,101863.63
2018-05-04T04:04:27.046Z,101871.27
2018-05-04T04:07:32.983Z,101866.17
2018-05-04T04:10:38.723Z,101872.53
2018-05-04T04:13:44.590Z,101880.19
2018-05-04T04:16:50.803Z,101884.00
2018-05-04T04:19:56.627Z,101888.64
2018-05-04T04:23:02.510Z,101888.23
2018-05-04T04:26:08.342Z,101876.77
2018-05-04T04:29:14.074Z,101882.30
2018-05-04T04:32:19.314Z,101882.73
2018-05-04T04:35:25.947Z,101887.80
2018-05-04T04:38:31.555Z,101881.05
2018-05-04T04:41:36.754Z,101892.88
2018-05-04T04:44:42.487Z,101891.20
2018-05-04T04:47:47.689Z,101892.05
2018-05-04T04:50:52.910Z,101891.20
2018-05-04T04:53:59.013Z,101903.49
2018-05-04T04:57:04.963Z,101908.14
2018-05-04T05:00:10.165Z,101912.38
2018-05-04T05:03:15.386Z,101912.80
2018-05-04T05:06:21.512Z,101917.87
2018-05-04T05:09:28.617Z,101918.72
2018-05-04T05:12:34.417Z,101916.61
2018-05-04T05:15:40.547Z,101918.73
2018-05-04T05:18:45.750Z,101924.23
2018-05-04T05:21:51.032Z,101926.77
2018-05-04T05:24:58.385Z,101930.58
2018-05-04T05:28:04.871Z,101926.31
2018-05-04T05:31:10.096Z,101925.89
2018-05-04T05:34:15.037Z,101933.93
2018-05-04T05:37:20.305Z,101940.72
2018-05-04T05:40:26.499Z,101941.11
2018-05-04T05:43:32.349Z,101940.69
2018-05-04T05:46:38.623Z,101938.13
2018-05-04T05:49:43.800Z,101935.13
2018-05-04T05:52:49.001Z,101942.73
2018-05-04T05:55:54.931Z,101945.27
2018-05-04T05:59:00.167Z,101936.25
2018-05-04T06:02:05.349Z,101940.49
2018-05-04T06:05:11.242Z,101936.61
2018-05-04T06:08:18.078Z,101932.77
2018-05-04T06:11:23.916Z,101931.91
2018-05-04T06:14:29.134Z,101936.08
2018-05-04T06:17:35.082Z,101935.63
2018-05-04T06:20:41.922Z,101935.99
2018-05-04T06:23:48.042Z,101928.28
2018-05-04T06:26:53.948Z,101924.80
2018-05-04T06:30:00.071Z,101933.64
2018-05-04T06:33:06.069Z,101920.80
2018-05-04T06:36:11.246Z,101913.52
2018-05-04T06:39:17.352Z,101919.84
2018-05-04T06:42:23.258Z,101918.47
2018-05-04T06:45:30.294Z,101922.20
2018-05-04T06:48:36.431Z,101929.33
2018-05-04T06:51:42.791Z,101929.23
2018-05-04T06:54:48.912Z,101925.70
2018-05-04T06:57:55.059Z,101932.39
2018-05-04T07:01:02.089Z,101933.54
2018-05-04T07:04:08.205Z,101934.23
2018-05-04T07:07:14.372Z,101932.38
2018-05-04T07:10:20.480Z,101927.96
2018-05-04T07:13:26.913Z,101939.70
2018-05-04T07:16:32.768Z,101936.58
2018-05-04T07:19:39.094Z,101933.84
2018-05-04T07:22:44.307Z,101936.64
2018-05-04T07:25:50.449Z,101934.33
2018-05-04T07:28:56.573Z,101937.11
2018-05-04T07:32:02.497Z,101942.88
2018-05-04T07:35:07.703Z,101942.66
2018-05-04T07:38:13.869Z,101955.66
2018-05-04T07:41:19.490Z,101944.79
2018-05-04T07:44:26.511Z,101954.80
2018-05-04T07:47:32.629Z,101949.86
2018-05-04T07:50:37.606Z,101951.74
2018-05-04T07:53:42.818Z,101952.30
2018-05-04T07:56:48.022Z,101946.49
2018-05-04T07:59:52.942Z,101952.14
2018-05-04T08:02:59.577Z,101948.86
2018-05-04T08:06:06.463Z,101947.67
2018-05-04T08:09:11.423Z,101949.91
2018-05-04T08:12:16.627Z,101948.22
2018-05-04T08:15:22.769Z,101955.55
2018-05-04T08:18:28.789Z,101950.84
2018-05-04T08:21:34.934Z,101963.67
2018-05-04T08:24:40.735Z,101953.39
2018-05-04T08:27:45.953Z,101958.98
2018-05-04T08:30:51.660Z,101961.11
2018-05-04T08:33:57.487Z,101967.95
2018-05-04T08:37:02.731Z,101962.44
2018-05-04T08:40:09.030Z,101971.92
2018-05-04T08:43:15.190Z,101975.41
2018-05-04T08:46:21.406Z,101969.89
2018-05-04T08:49:27.327Z,101973.02
2018-05-04T08:52:33.458Z,101983.84
2018-05-04T08:55:40.620Z,101980.52
2018-05-04T08:58:46.447Z,101976.42
2018-05-04T09:01:51.670Z,101976.61
2018-05-04T09:04:57.817Z,101975.98
2018-05-04T09:08:03.946Z,101978.33
2018-05-04T09:11:10.091Z,101987.10
2018-05-04T09:14:16.218Z,101991.53
2018-05-04T09:17:22.138Z,101992.48
2018-05-04T09:20:28.070Z,101990.89
2018-05-04T09:23:33.762Z,102001.30
2018-05-04T09:26:39.912Z,101998.87
2018-05-04T09:29:46.806Z,101997.53
2018-05-04T09:32:52.963Z,101984.27
2018-05-04T09:35:59.157Z,101990.69
2018-05-04T09:39:04.707Z,101993.63
2018-05-04T09:42:10.898Z,101993.58
2018-05-04T09:45:17.042Z,101991.34
2018-05-04T09:48:23.164Z,101998.55
2018-05-04T09:51:28.786Z,101995.91
2018-05-04T09:54:34.632Z,101992.09
2018-05-04T09:57:40.826Z,101999.80
2018-05-04T10:00:46.039Z,102000.28
2018-05-04T10:03:52.258Z,102008.01
2018-05-04T10:06:58.386Z,102003.80
2018-05-04T10:10:05.143Z,102004.47
2018-05-04T10:13:12.305Z,101993.41
2018-05-04T10:16:18.170Z,101996.48
2018-05-04T10:19:24.301Z,102001.66
2018-05-04T10:22:30.362Z,101995.16
2018-05-04T10:25:36.409Z,102003.46
2018-05-04T10:28:42.572Z,102002.72
2018-05-04T10:31:48.712Z,102002.54
2018-05-04T10:34:54.370Z,101998.09
2018-05-04T10:37:59.578Z,101999.81
2018-05-04T10:41:04.810Z,101999.25
2018-05-04T10:44:11.064Z,102001.83
2018-05-04T10:47:17.187Z,102004.50
2018-05-04T10:50:23.305Z,102011.03
2018-05-04T10:53:30.201Z,102006.16
2018-05-04T10:56:37.066Z,102008.91
2018-05-04T10:59:43.638Z,101999.82
2018-05-04T11:02:48.904Z,102008.76
2018-05-04T11:05:54.127Z,102000.96
2018-05-04T11:08:59.334Z,101997.16
2018-05-04T11:12:05.580Z,101990.09
2018-05-04T11:15:11.710Z,101992.64
2018-05-04T11:18:17.650Z,101985.91
2018-05-04T11:21:23.798Z,101988.45
2018-05-04T11:24:29.950Z,101992.49
2018-05-04T11:27:36.098Z,101988.08
2018-05-04T11:30:41.932Z,101985.53
2018-05-04T11:33:47.135Z,101976.86
2018-05-04T11:36:52.361Z,101979.30
2018-05-04T11:39:57.569Z,101983.05
2018-05-04T11:43:02.795Z,101983.36
2018-05-04T11:46:08.520Z,101982.37
2018-05-04T11:49:14.472Z,101983.09
2018-05-04T11:52:20.598Z,101981.75
2018-05-04T11:55:26.735Z,101980.80
2018-05-04T11:58:32.949Z,101972.81
2018-05-04T12:01:39.900Z,101982.58
2018-05-04T12:04:47.109Z,101982.89
2018-05-04T12:07:53.641Z,101986.54
2018-05-04T12:10:58.854Z,101983.70
2018-05-04T12:14:05.014Z,101981.77
2018-05-04T12:17:10.430Z,101986.50
2018-05-04T12:20:15.649Z,101984.55
2018-05-04T12:23:20.863Z,101985.06
2018-05-04T12:26:26.079Z,101986.78
2018-05-04T12:29:31.726Z,101989.05
2018-05-04T12:32:38.857Z,101982.08
2018-05-04T12:35:44.989Z,101990.44
2018-05-04T12:38:51.343Z,101985.68
2018-05-04T12:41:57.499Z,101987.06
2018-05-04T12:45:02.736Z,101987.23
2018-05-04T12:48:08.451Z,101987.27
2018-05-04T12:51:13.671Z,101991.20
2018-05-04T12:54:20.782Z,101985.84
2018-05-04T12:57:28.714Z,101985.97
2018-05-04T13:00:34.598Z,101984.33
2018-05-04T13:03:41.633Z,101980.89
2018-05-04T13:06:47.806Z,101979.20
2018-05-04T13:09:53.011Z,101974.30
2018-05-04T13:13:00.060Z,101972.28
2018-05-04T13:16:06.195Z,101972.28
2018-05-04T13:19:13.058Z,101967.62
2018-05-04T13:22:19.230Z,101965.70
2018-05-04T13:25:26.145Z,101963.00
2018-05-04T13:28:31.978Z,101968.39
2018-05-04T13:31:38.874Z,101964.28
2018-05-04T13:34:44.910Z,101968.35
2018-05-04T13:37:51.109Z,101970.55
2018-05-04T13:40:57.330Z,101971.34
2018-05-04T13:44:03.474Z,101965.14
2018-05-04T13:47:10.373Z,101966.98
2018-05-04T13:50:16.163Z,101975.67
2018-05-04T13:53:23.122Z,101981.46
2018-05-04T13:56:29.275Z,101970.66
2018-05-04T13:59:36.141Z,101966.44
2018-05-04T14:02:42.918Z,101957.16
2018-05-04T14:05:47.911Z,101957.89
2018-05-04T14:08:53.123Z,101966.34
2018-05-04T14:11:59.238Z,101966.48
2018-05-04T14:15:03.889Z,101960.86
2018-05-04T14:18:09.890Z,101956.83
2018-05-04T14:21:16.719Z,101955.19
2018-05-04T14:24:22.893Z,101962.05
2018-05-04T14:27:29.006Z,101961.63
2018-05-04T14:30:35.142Z,101957.89
2018-05-04T14:33:40.350Z,101957.80
2018-05-04T14:36:45.617Z,101955.80
2018-05-04T14:39:51.348Z,101954.73
2018-05-04T14:42:56.553Z,101959.28
2018-05-04T14:46:02.762Z,101961.38
2018-05-04T14:49:07.993Z,101962.70
2018-05-04T14:52:12.932Z,101957.45
2018-05-04T14:55:19.483Z,101960.58
2018-05-04T14:58:25.622Z,101950.56
2018-05-04T15:01:32.707Z,101946.65
2018-05-04T15:04:38.866Z,101952.94
2018-05-04T15:07:44.062Z,101952.33
2018-05-04T15:10:50.279Z,101946.89
2018-05-04T15:13:55.498Z,101949.02
2018-05-04T15:17:01.593Z,101944.23
2018-05-04T15:20:07.850Z,101944.70
2018-05-04T15:23:14.570Z,101944.96
2018-05-04T15:26:20.242Z,101942.16
2018-05-04T15:29:26.394Z,101941.27
2018-05-04T15:32:31.606Z,101948.98
2018-05-04T15:35:36.687Z,101943.33
2018-05-04T15:38:42.481Z,101948.36
2018-05-04T15:41:47.666Z,101942.89
2018-05-04T15:44:52.560Z,101940.29
2018-05-04T15:47:57.966Z,101951.67
2018-05-04T15:51:08.591Z,101949.02
2018-05-04T15:54:15.493Z,101951.57
2018-05-04T15:57:22.513Z,101948.05
2018-05-04T16:00:28.754Z,101950.58
2018-05-04T16:03:33.951Z,101942.92
2018-05-04T16:06:38.654Z,101942.56
2018-05-04T16:09:43.877Z,101945.41
2018-05-04T16:12:49.102Z,101943.66
2018-05-04T16:15:54.314Z,101942.91
2018-05-04T16:19:00.457Z,101944.52
2018-05-04T16:22:05.370Z,101952.17
2018-05-04T16:25:12.294Z,101948.06
2018-05-04T16:28:18.440Z,101956.09
2018-05-04T16:31:25.528Z,101957.20
2018-05-04T16:34:31.646Z,101972.14
2018-05-04T16:37:39.564Z,101971.08
2018-05-04T16:40:45.694Z,101973.45
2018-05-04T16:43:52.591Z,101977.16
2018-05-04T16:47:04.009Z,101982.57
2018-05-04T16:50:10.750Z,101983.31
2018-05-04T16:53:16.550Z,101991.70
2018-05-04T16:56:23.602Z,101988.17
2018-05-04T16:59:30.477Z,101992.55
2018-05-04T17:02:36.619Z,101990.61
2018-05-04T17:05:41.622Z,101997.13
2018-05-04T17:08:48.502Z,101997.52
2018-05-04T17:11:54.102Z,102003.99
2018-05-04T17:14:59.816Z,102008.66
2018-05-04T17:18:05.402Z,102004.19
2018-05-04T17:21:10.638Z,102010.20
2018-05-04T17:24:15.577Z,102009.66
2018-05-04T17:27:22.569Z,102019.25
2018-05-04T17:30:28.679Z,102025.40
2018-05-04T17:33:34.854Z,102022.52
2018-05-04T17:36:40.750Z,102028.03
2018-05-04T17:39:46.854Z,102029.83
2018-05-04T17:42:53.822Z,102030.05
2018-05-04T17:45:59.957Z,102025.44
2018-05-04T17:49:06.751Z,102027.67
2018-05-04T17:52:13.645Z,102030.74
2018-05-04T17:55:19.512Z,102027.30
2018-05-04T17:58:24.730Z,102032.97
2018-05-04T18:01:29.947Z,102033.70
2018-05-04T18:04:35.184Z,102035.80
2018-05-04T18:07:40.599Z,102041.05
2018-05-04T18:10:46.647Z,102044.16
2018-05-04T18:13:52.373Z,102054.84
2018-05-04T18:16:59.457Z,102053.41
2018-05-04T18:20:05.540Z,102053.80
2018-05-04T18:23:11.450Z,102051.09
2018-05-04T18:26:16.669Z,102046.83
2018-05-04T18:29:23.326Z,102051.06
2018-05-04T18:32:29.171Z,102046.31
2018-05-04T18:35:36.311Z,102047.44
2018-05-04T18:38:41.848Z,102046.45
2018-05-04T18:41:47.068Z,102052.90
2018-05-04T18:44:52.361Z,102049.72
2018-05-04T18:47:58.499Z,102056.58
2018-05-04T18:51:03.715Z,102064.69
2018-05-04T18:54:09.854Z,102066.23
2018-05-04T18:57:15.242Z,102066.59
2018-05-04T19:00:20.219Z,102066.50
2018-05-04T19:03:25.446Z,102067.27
2018-05-04T19:06:30.650Z,102065.88
2018-05-04T19:09:37.823Z,102069.64
2018-05-04T19:12:44.596Z,102072.55
2018-05-04T19:15:50.742Z,102074.58
2018-05-04T19:18:56.913Z,102080.87
2018-05-04T19:22:02.128Z,102088.48
2018-05-04T19:25:08.257Z,102103.38
2018-05-04T19:28:14.218Z,102101.97
2018-05-04T19:31:20.347Z,102108.67
2018-05-04T19:34:27.491Z,102111.47
2018-05-04T19:37:33.300Z,102120.36
2018-05-04T19:40:38.554Z,102123.19
2018-05-04T19:43:43.770Z,102130.32
2018-05-04T19:46:50.307Z,102130.54
2018-05-04T19:49:57.338Z,102129.13
2018-05-04T19:53:03.469Z,102131.52
2018-05-04T19:56:08.684Z,102135.64
2018-05-04T19:59:14.953Z,102143.22
2018-05-04T20:02:21.724Z,102146.41
2018-05-04T20:05:28.146Z,102153.52
2018-05-04T20:08:34.085Z,102159.34
2018-05-04T20:11:39.730Z,102160.92
2018-05-04T20:14:44.936Z,102166.28
2018-05-04T20:17:50.869Z,102163.52
2018-05-04T20:20:56.092Z,102164.67
2018-05-04T20:24:03.134Z,102169.61
2018-05-04T20:27:09.258Z,102171.94
2018-05-04T20:30:16.364Z,102171.30
2018-05-04T20:33:23.414Z,102171.50
2018-05-04T20:36:29.563Z,102176.09
2018-05-04T20:39:36.188Z,102169.09
2018-05-04T20:42:41.413Z,102169.30
2018-05-04T20:45:47.542Z,102172.89
2018-05-04T20:48:53.246Z,102173.59
2018-05-04T20:51:59.443Z,102168.31
2018-05-04T20:55:05.555Z,102168.50
2018-05-04T20:58:12.660Z,102173.80
2018-05-04T21:01:18.831Z,102174.43
2018-05-04T21:04:23.802Z,102174.61
2018-05-04T21:07:29.042Z,102177.28
2018-05-04T21:10:34.524Z,102181.70
2018-05-04T21:13:39.786Z,102182.20
2018-05-04T21:16:45.931Z,102192.22
2018-05-04T21:19:51.929Z,102188.12
2018-05-04T21:22:58.030Z,102189.06
2018-05-04T21:26:05.250Z,102191.38
2018-05-04T21:29:11.178Z,102188.91
2018-05-04T21:32:16.382Z,102200.59
2018-05-04T21:35:22.139Z,102196.91
2018-05-04T21:38:27.348Z,102193.98
2018-05-04T21:41:33.751Z,102203.08
2018-05-04T21:44:38.955Z,102196.42
2018-05-04T21:47:44.162Z,102200.41
2018-05-04T21:50:50.538Z,102201.77
2018-05-04T21:53:55.742Z,102203.17
2018-05-04T21:57:00.959Z,102201.53
2018-05-04T22:00:06.704Z,102204.66
2018-05-04T22:03:12.249Z,102204.77
2018-05-04T22:06:18.785Z,102197.17
2018-05-04T22:09:24.917Z,102199.44
2018-05-04T22:12:30.130Z,102213.64
2018-05-04T22:15:36.260Z,102203.95
2018-05-04T22:18:41.671Z,102206.13
2018-05-04T22:21:46.642Z,102213.42
2018-05-04T22:24:51.847Z,102218.69
2018-05-04T22:27:57.526Z,102208.93
2018-05-04T22:31:02.730Z,102213.29
2018-05-04T22:34:07.666Z,102216.41
2018-05-04T22:37:12.878Z,102213.03
2018-05-04T22:40:17.857Z,102210.56
2018-05-04T22:43:23.058Z,102214.02
2018-05-04T22:46:29.758Z,102212.87
2018-05-04T22:49:35.895Z,102215.02
2018-05-04T22:52:41.838Z,102206.94
2018-05-04T22:55:48.890Z,102214.67
2018-05-04T22:58:54.998Z,102216.44
2018-05-04T23:02:00.921Z,102220.37
2018-05-04T23:05:05.796Z,102222.13
2018-05-04T23:08:11.420Z,102231.98
2018-05-04T23:11:17.351Z,102226.51
2018-05-04T23:14:24.086Z,102232.94
2018-05-04T23:17:29.716Z,102229.64
2018-05-04T23:20:34.669Z,102222.84
2018-05-04T23:23:39.877Z,102214.80
2018-05-04T23:26:45.086Z,102219.13
2018-05-04T23:29:50.058Z,102218.77
2018-05-04T23:32:55.031Z,102223.94
2018-05-04T23:36:00.237Z,102224.36
2018-05-04T23:39:04.874Z,102224.86
2018-05-04T23:42:10.820Z,102221.91
2018-05-04T23:45:17.737Z,102227.52
2018-05-04T23:48:23.913Z,102227.98
2018-05-04T23:51:29.118Z,102231.08
2018-05-04T23:54:35.656Z,102222.14
2018-05-04T23:57:42.262Z,102226.37
